EZY79NW EGAC-EGKK
Flight info
| Callsign | EZY79NW |
|---|---|
| Flight time | 1h 3m |
| Altitude | 33000 |
| Route | DUFFY L10 RINGA DCT BABGU DCT ETIGA DCT INKOB Q39 NOMSU UQ4 WAL L151 DISIT |
| Aircraft | A319/M-SDE2E3FGIJ1RWXYZ/LB1 |
Departure
| Time | 2026-05-06 19:54 |
|---|---|
| Airport | George Best Belfast City Airport (EGAC) |
Arrival
| Time | 2026-05-06 20:57 |
|---|---|
| Airport | London Gatwick Airport (EGKK) |
| Time | Latitude | Longitude | Altitude | Speed | Heading |
|---|---|---|---|---|---|
| 2026-05-06 19:32 | 54.61502 | -5.87147 | 24 ft | 0 kts | 156° |
| 2026-05-06 19:46 | 54.61505 | -5.87149 | 22 ft | 3 kts | 155° |
| 2026-05-06 19:46 | 54.61528 | -5.87171 | 24 ft | 4 kts | 136° |
| 2026-05-06 19:46 | 54.61541 | -5.87203 | 22 ft | 4 kts | 75° |
| 2026-05-06 19:47 | 54.61535 | -5.87219 | 23 ft | 1 kts | 35° |
| 2026-05-06 19:47 | 54.61534 | -5.87221 | 23 ft | 0 kts | 35° |
| 2026-05-06 19:49 | 54.61534 | -5.87220 | 23 ft | 0 kts | 35° |
| 2026-05-06 19:49 | 54.61545 | -5.87207 | 22 ft | 4 kts | 35° |
| 2026-05-06 19:50 | 54.61575 | -5.87170 | 21 ft | 6 kts | 35° |
| 2026-05-06 19:50 | 54.61608 | -5.87129 | 21 ft | 6 kts | 35° |
| 2026-05-06 19:50 | 54.61648 | -5.87082 | 21 ft | 9 kts | 34° |
| 2026-05-06 19:50 | 54.61702 | -5.87020 | 21 ft | 10 kts | 34° |
| 2026-05-06 19:51 | 54.61761 | -5.87006 | 21 ft | 9 kts | 329° |
| 2026-05-06 19:51 | 54.61804 | -5.87104 | 18 ft | 13 kts | 302° |
| 2026-05-06 19:51 | 54.61872 | -5.87179 | 19 ft | 16 kts | 20° |
| 2026-05-06 19:51 | 54.61993 | -5.87032 | 16 ft | 23 kts | 35° |
| 2026-05-06 19:52 | 54.62125 | -5.86874 | 16 ft | 24 kts | 34° |
| 2026-05-06 19:52 | 54.62270 | -5.86701 | 20 ft | 26 kts | 34° |
| 2026-05-06 19:52 | 54.62404 | -5.86547 | 22 ft | 17 kts | 24° |
| 2026-05-06 19:52 | 54.62473 | -5.86483 | 20 ft | 11 kts | 95° |
| 2026-05-06 19:53 | 54.62430 | -5.86507 | 22 ft | 8 kts | 220° |
| 2026-05-06 19:53 | 54.62375 | -5.86576 | 22 ft | 16 kts | 215° |
| 2026-05-06 19:53 | 54.62213 | -5.86770 | 20 ft | 61 kts | 214° |
| 2026-05-06 19:53 | 54.61616 | -5.87482 | 21 ft | 142 kts | 214° |
| 2026-05-06 19:54 | 54.60753 | -5.88533 | 540 ft | 156 kts | 214° |
| 2026-05-06 19:54 | 54.59872 | -5.89622 | 1422 ft | 157 kts | 212° |
| 2026-05-06 19:54 | 54.58823 | -5.90403 | 1990 ft | 178 kts | 186° |
| 2026-05-06 19:54 | 54.57529 | -5.89967 | 2494 ft | 205 kts | 161° |
| 2026-05-06 19:55 | 54.56112 | -5.89067 | 2992 ft | 230 kts | 161° |
| 2026-05-06 19:55 | 54.54536 | -5.88060 | 3578 ft | 251 kts | 162° |
| 2026-05-06 19:55 | 54.52866 | -5.86991 | 4487 ft | 259 kts | 161° |
| 2026-05-06 19:55 | 54.51289 | -5.85420 | 5431 ft | 269 kts | 137° |
| 2026-05-06 19:56 | 54.50145 | -5.82846 | 6458 ft | 272 kts | 126° |
| 2026-05-06 19:56 | 54.49068 | -5.80136 | 7394 ft | 276 kts | 126° |
| 2026-05-06 19:56 | 54.47975 | -5.77374 | 8294 ft | 283 kts | 126° |
| 2026-05-06 19:56 | 54.46856 | -5.74556 | 9186 ft | 288 kts | 126° |
| 2026-05-06 19:57 | 54.45709 | -5.71686 | 10065 ft | 294 kts | 127° |
| 2026-05-06 19:57 | 54.44506 | -5.68693 | 10464 ft | 317 kts | 127° |
| 2026-05-06 19:57 | 54.43213 | -5.65493 | 10970 ft | 332 kts | 127° |
| 2026-05-06 19:57 | 54.41886 | -5.62208 | 11727 ft | 338 kts | 127° |
| 2026-05-06 19:58 | 54.40538 | -5.58868 | 12535 ft | 343 kts | 127° |
| 2026-05-06 19:58 | 54.39171 | -5.55477 | 13347 ft | 347 kts | 127° |
| 2026-05-06 19:58 | 54.37789 | -5.52051 | 14097 ft | 352 kts | 127° |
| 2026-05-06 19:58 | 54.36386 | -5.48577 | 14785 ft | 356 kts | 126° |
| 2026-05-06 19:59 | 54.34965 | -5.45070 | 15475 ft | 360 kts | 127° |
| 2026-05-06 19:59 | 54.33524 | -5.41521 | 16154 ft | 365 kts | 127° |
| 2026-05-06 19:59 | 54.32068 | -5.37938 | 16831 ft | 369 kts | 127° |
| 2026-05-06 19:59 | 54.30589 | -5.34311 | 17509 ft | 373 kts | 127° |
| 2026-05-06 20:00 | 54.29090 | -5.30645 | 18163 ft | 378 kts | 127° |
| 2026-05-06 20:00 | 54.27569 | -5.26947 | 18735 ft | 383 kts | 128° |
| 2026-05-06 20:00 | 54.25952 | -5.23296 | 19311 ft | 386 kts | 130° |
| 2026-05-06 20:00 | 54.24258 | -5.19717 | 19893 ft | 390 kts | 131° |
| 2026-05-06 20:01 | 54.22501 | -5.16147 | 20476 ft | 393 kts | 131° |
| 2026-05-06 20:01 | 54.20718 | -5.12570 | 21057 ft | 397 kts | 131° |
| 2026-05-06 20:01 | 54.18924 | -5.08955 | 21633 ft | 401 kts | 131° |
| 2026-05-06 20:01 | 54.17123 | -5.05284 | 22203 ft | 405 kts | 130° |
| 2026-05-06 20:02 | 54.15316 | -5.01568 | 22763 ft | 409 kts | 130° |
| 2026-05-06 20:02 | 54.13499 | -4.97808 | 23326 ft | 412 kts | 129° |
| 2026-05-06 20:02 | 54.11671 | -4.94017 | 23868 ft | 415 kts | 129° |
| 2026-05-06 20:02 | 54.09831 | -4.90206 | 24347 ft | 418 kts | 129° |
| 2026-05-06 20:03 | 54.07976 | -4.86382 | 24822 ft | 420 kts | 129° |
| 2026-05-06 20:03 | 54.06109 | -4.82545 | 25295 ft | 423 kts | 129° |
| 2026-05-06 20:03 | 54.04225 | -4.78678 | 25754 ft | 425 kts | 129° |
| 2026-05-06 20:03 | 54.02377 | -4.74737 | 26216 ft | 427 kts | 127° |
| 2026-05-06 20:04 | 54.00570 | -4.70708 | 26677 ft | 429 kts | 126° |
| 2026-05-06 20:04 | 53.98786 | -4.66632 | 27136 ft | 432 kts | 125° |
| 2026-05-06 20:04 | 53.96996 | -4.62522 | 27567 ft | 434 kts | 125° |
| 2026-05-06 20:04 | 53.95186 | -4.58391 | 28000 ft | 437 kts | 125° |
| 2026-05-06 20:05 | 53.93383 | -4.54311 | 28419 ft | 439 kts | 125° |
| 2026-05-06 20:05 | 53.91534 | -4.50165 | 28834 ft | 442 kts | 125° |
| 2026-05-06 20:05 | 53.89665 | -4.46010 | 29280 ft | 444 kts | 126° |
| 2026-05-06 20:05 | 53.87784 | -4.41852 | 29704 ft | 446 kts | 126° |
| 2026-05-06 20:06 | 53.85908 | -4.37653 | 30106 ft | 448 kts | 124° |
| 2026-05-06 20:06 | 53.84092 | -4.33360 | 30429 ft | 450 kts | 122° |
| 2026-05-06 20:06 | 53.82315 | -4.28977 | 30756 ft | 452 kts | 121° |
| 2026-05-06 20:06 | 53.80557 | -4.24554 | 31075 ft | 454 kts | 121° |
| 2026-05-06 20:07 | 53.78788 | -4.20111 | 31386 ft | 457 kts | 121° |
| 2026-05-06 20:07 | 53.76994 | -4.15654 | 31727 ft | 458 kts | 122° |
| 2026-05-06 20:07 | 53.75186 | -4.11221 | 32138 ft | 458 kts | 122° |
| 2026-05-06 20:07 | 53.73370 | -4.06811 | 32586 ft | 457 kts | 122° |
| 2026-05-06 20:08 | 53.71543 | -4.02404 | 32939 ft | 457 kts | 122° |
| 2026-05-06 20:08 | 53.69723 | -3.98033 | 33011 ft | 450 kts | 121° |
| 2026-05-06 20:08 | 53.67950 | -3.93792 | 33015 ft | 437 kts | 121° |
| 2026-05-06 20:08 | 53.66217 | -3.89644 | 33011 ft | 430 kts | 122° |
| 2026-05-06 20:09 | 53.62803 | -3.81437 | 33013 ft | 426 kts | 121° |
| 2026-05-06 20:09 | 53.59402 | -3.73263 | 33012 ft | 426 kts | 121° |
| 2026-05-06 20:10 | 53.55998 | -3.65116 | 33016 ft | 426 kts | 122° |
| 2026-05-06 20:10 | 53.52564 | -3.56987 | 33018 ft | 426 kts | 122° |
| 2026-05-06 20:11 | 53.49151 | -3.48927 | 33013 ft | 426 kts | 122° |
| 2026-05-06 20:11 | 53.46084 | -3.40496 | 33008 ft | 421 kts | 109° |
| 2026-05-06 20:12 | 53.43809 | -3.31460 | 33005 ft | 420 kts | 109° |
| 2026-05-06 20:12 | 53.41504 | -3.22453 | 33010 ft | 420 kts | 110° |
| 2026-05-06 20:13 | 53.38505 | -3.13934 | 33010 ft | 427 kts | 128° |
| 2026-05-06 20:13 | 53.33996 | -3.07501 | 33020 ft | 432 kts | 144° |
| 2026-05-06 20:14 | 53.29023 | -3.01850 | 33018 ft | 432 kts | 144° |
| 2026-05-06 20:14 | 53.24017 | -2.96152 | 33021 ft | 433 kts | 144° |
| 2026-05-06 20:15 | 53.19072 | -2.90543 | 33019 ft | 432 kts | 144° |
| 2026-05-06 20:15 | 53.14096 | -2.84922 | 33029 ft | 432 kts | 144° |
| 2026-05-06 20:16 | 53.09124 | -2.79319 | 33019 ft | 431 kts | 144° |
| 2026-05-06 20:16 | 53.04149 | -2.73730 | 33025 ft | 431 kts | 144° |
| 2026-05-06 20:17 | 52.99180 | -2.68159 | 33026 ft | 431 kts | 144° |
| 2026-05-06 20:17 | 52.94180 | -2.62567 | 33035 ft | 430 kts | 144° |
| 2026-05-06 20:18 | 52.89258 | -2.57081 | 33036 ft | 429 kts | 144° |
| 2026-05-06 20:18 | 52.84310 | -2.51582 | 33047 ft | 428 kts | 145° |
| 2026-05-06 20:19 | 52.79332 | -2.46077 | 33037 ft | 428 kts | 145° |
| 2026-05-06 20:19 | 52.74372 | -2.40607 | 33035 ft | 435 kts | 145° |
| 2026-05-06 20:20 | 52.71879 | -2.37860 | 32768 ft | 434 kts | 146° |
| 2026-05-06 20:20 | 52.69396 | -2.35127 | 32508 ft | 424 kts | 146° |
| 2026-05-06 20:20 | 52.66961 | -2.32446 | 32115 ft | 419 kts | 146° |
| 2026-05-06 20:20 | 52.64519 | -2.29757 | 31659 ft | 414 kts | 146° |
| 2026-05-06 20:21 | 52.62134 | -2.27133 | 31207 ft | 411 kts | 146° |
| 2026-05-06 20:21 | 52.59764 | -2.24530 | 30769 ft | 408 kts | 146° |
| 2026-05-06 20:21 | 52.57410 | -2.21957 | 30329 ft | 405 kts | 146° |
| 2026-05-06 20:21 | 52.55070 | -2.19404 | 29880 ft | 402 kts | 146° |
| 2026-05-06 20:22 | 52.52746 | -2.16871 | 29391 ft | 399 kts | 146° |
| 2026-05-06 20:22 | 52.50439 | -2.14362 | 28926 ft | 396 kts | 146° |
| 2026-05-06 20:22 | 52.48153 | -2.11878 | 28502 ft | 393 kts | 147° |
| 2026-05-06 20:22 | 52.45886 | -2.09414 | 28086 ft | 390 kts | 147° |
| 2026-05-06 20:23 | 52.43635 | -2.06967 | 27652 ft | 387 kts | 147° |
| 2026-05-06 20:23 | 52.41400 | -2.04538 | 27222 ft | 384 kts | 147° |
| 2026-05-06 20:23 | 52.39180 | -2.02134 | 26792 ft | 382 kts | 147° |
| 2026-05-06 20:23 | 52.36975 | -1.99750 | 26359 ft | 379 kts | 147° |
| 2026-05-06 20:24 | 52.34778 | -1.97379 | 25938 ft | 376 kts | 148° |
| 2026-05-06 20:24 | 52.32600 | -1.95029 | 25507 ft | 374 kts | 148° |
| 2026-05-06 20:24 | 52.30436 | -1.92699 | 25081 ft | 371 kts | 148° |
| 2026-05-06 20:24 | 52.28283 | -1.90383 | 24653 ft | 369 kts | 148° |
| 2026-05-06 20:25 | 52.26150 | -1.88089 | 24214 ft | 366 kts | 148° |
| 2026-05-06 20:25 | 52.24026 | -1.85810 | 23817 ft | 364 kts | 148° |
| 2026-05-06 20:25 | 52.21918 | -1.83549 | 23370 ft | 361 kts | 148° |
| 2026-05-06 20:25 | 52.19824 | -1.81307 | 22878 ft | 359 kts | 148° |
| 2026-05-06 20:26 | 52.17745 | -1.79083 | 22440 ft | 356 kts | 148° |
| 2026-05-06 20:26 | 52.15684 | -1.76882 | 22005 ft | 354 kts | 148° |
| 2026-05-06 20:26 | 52.13632 | -1.74695 | 21580 ft | 351 kts | 148° |
| 2026-05-06 20:26 | 52.11594 | -1.72523 | 21161 ft | 349 kts | 148° |
| 2026-05-06 20:27 | 52.09571 | -1.70369 | 20749 ft | 346 kts | 148° |
| 2026-05-06 20:27 | 52.07561 | -1.68228 | 20343 ft | 344 kts | 148° |
| 2026-05-06 20:27 | 52.05563 | -1.66104 | 19948 ft | 342 kts | 148° |
| 2026-05-06 20:27 | 52.03602 | -1.64023 | 19563 ft | 340 kts | 148° |
| 2026-05-06 20:28 | 52.01630 | -1.61934 | 19187 ft | 338 kts | 148° |
| 2026-05-06 20:28 | 51.99663 | -1.59854 | 18812 ft | 336 kts | 148° |
| 2026-05-06 20:28 | 51.97713 | -1.57795 | 18456 ft | 334 kts | 148° |
| 2026-05-06 20:28 | 51.95767 | -1.55736 | 18068 ft | 333 kts | 148° |
| 2026-05-06 20:29 | 51.93834 | -1.53693 | 17666 ft | 331 kts | 148° |
| 2026-05-06 20:29 | 51.91916 | -1.51671 | 17271 ft | 329 kts | 148° |
| 2026-05-06 20:29 | 51.89998 | -1.49650 | 16886 ft | 327 kts | 148° |
| 2026-05-06 20:29 | 51.88094 | -1.47642 | 16511 ft | 326 kts | 148° |
| 2026-05-06 20:30 | 51.86208 | -1.45652 | 16152 ft | 324 kts | 147° |
| 2026-05-06 20:30 | 51.82438 | -1.41684 | 15437 ft | 322 kts | 148° |
| 2026-05-06 20:30 | 51.80562 | -1.39722 | 15112 ft | 320 kts | 148° |
| 2026-05-06 20:31 | 51.78691 | -1.37769 | 15051 ft | 320 kts | 148° |
| 2026-05-06 20:31 | 51.76817 | -1.35811 | 15055 ft | 321 kts | 148° |
| 2026-05-06 20:31 | 51.74942 | -1.33855 | 15058 ft | 321 kts | 148° |
| 2026-05-06 20:31 | 51.73066 | -1.31898 | 15054 ft | 321 kts | 148° |
| 2026-05-06 20:32 | 51.71191 | -1.29937 | 15051 ft | 321 kts | 147° |
| 2026-05-06 20:32 | 51.69927 | -1.28614 | 15046 ft | 321 kts | 148° |
| 2026-05-06 20:32 | 51.68051 | -1.26655 | 15031 ft | 321 kts | 148° |
| 2026-05-06 20:32 | 51.66203 | -1.24726 | 15033 ft | 321 kts | 148° |
| 2026-05-06 20:33 | 51.64307 | -1.22748 | 15032 ft | 321 kts | 148° |
| 2026-05-06 20:33 | 51.62430 | -1.20796 | 15030 ft | 321 kts | 148° |
| 2026-05-06 20:33 | 51.60555 | -1.18854 | 15028 ft | 321 kts | 148° |
| 2026-05-06 20:33 | 51.58673 | -1.16913 | 15028 ft | 321 kts | 148° |
| 2026-05-06 20:34 | 51.56816 | -1.15000 | 15024 ft | 321 kts | 148° |
| 2026-05-06 20:34 | 51.54914 | -1.13037 | 15025 ft | 321 kts | 148° |
| 2026-05-06 20:34 | 51.53038 | -1.11099 | 15028 ft | 321 kts | 148° |
| 2026-05-06 20:34 | 51.51190 | -1.09188 | 15025 ft | 320 kts | 148° |
| 2026-05-06 20:35 | 51.49315 | -1.07254 | 15022 ft | 320 kts | 148° |
| 2026-05-06 20:35 | 51.47451 | -1.05334 | 14699 ft | 318 kts | 148° |
| 2026-05-06 20:35 | 51.45591 | -1.03419 | 14352 ft | 317 kts | 148° |
| 2026-05-06 20:35 | 51.43741 | -1.01519 | 14015 ft | 315 kts | 148° |
| 2026-05-06 20:36 | 51.41874 | -0.99604 | 13661 ft | 314 kts | 148° |
| 2026-05-06 20:36 | 51.40063 | -0.97748 | 13300 ft | 313 kts | 148° |
| 2026-05-06 20:36 | 51.38234 | -0.95879 | 12944 ft | 311 kts | 148° |
| 2026-05-06 20:36 | 51.36415 | -0.94017 | 12578 ft | 309 kts | 147° |
| 2026-05-06 20:37 | 51.34610 | -0.92161 | 12215 ft | 308 kts | 147° |
| 2026-05-06 20:37 | 51.32813 | -0.90317 | 11860 ft | 306 kts | 147° |
| 2026-05-06 20:37 | 51.31033 | -0.88493 | 11603 ft | 301 kts | 148° |
| 2026-05-06 20:37 | 51.29315 | -0.86741 | 11468 ft | 283 kts | 148° |
| 2026-05-06 20:38 | 51.27699 | -0.85097 | 11242 ft | 270 kts | 148° |
| 2026-05-06 20:38 | 51.26122 | -0.83496 | 10973 ft | 267 kts | 148° |
| 2026-05-06 20:38 | 51.24563 | -0.81913 | 10700 ft | 265 kts | 148° |
| 2026-05-06 20:38 | 51.23011 | -0.80336 | 10406 ft | 264 kts | 148° |
| 2026-05-06 20:39 | 51.21468 | -0.78771 | 10119 ft | 262 kts | 148° |
| 2026-05-06 20:39 | 51.19934 | -0.77213 | 10020 ft | 261 kts | 148° |
| 2026-05-06 20:39 | 51.18399 | -0.75655 | 10027 ft | 262 kts | 148° |
| 2026-05-06 20:39 | 51.16862 | -0.74092 | 10028 ft | 262 kts | 148° |
| 2026-05-06 20:40 | 51.15323 | -0.72530 | 10027 ft | 262 kts | 148° |
| 2026-05-06 20:40 | 51.13782 | -0.70967 | 10026 ft | 262 kts | 148° |
| 2026-05-06 20:40 | 51.12244 | -0.69412 | 10023 ft | 262 kts | 148° |
| 2026-05-06 20:40 | 51.10709 | -0.67861 | 9750 ft | 260 kts | 148° |
| 2026-05-06 20:41 | 51.09184 | -0.66327 | 9410 ft | 259 kts | 148° |
| 2026-05-06 20:41 | 51.07665 | -0.64800 | 9085 ft | 257 kts | 148° |
| 2026-05-06 20:41 | 51.06236 | -0.63170 | 9020 ft | 256 kts | 137° |
| 2026-05-06 20:41 | 51.05047 | -0.61055 | 9023 ft | 257 kts | 124° |
| 2026-05-06 20:42 | 51.04182 | -0.58627 | 9019 ft | 257 kts | 115° |
| 2026-05-06 20:42 | 51.03389 | -0.56082 | 9010 ft | 257 kts | 116° |
| 2026-05-06 20:42 | 51.02592 | -0.53542 | 9011 ft | 257 kts | 116° |
| 2026-05-06 20:42 | 51.01783 | -0.50970 | 9010 ft | 257 kts | 116° |
| 2026-05-06 20:43 | 51.00997 | -0.48468 | 9008 ft | 257 kts | 116° |
| 2026-05-06 20:43 | 51.00198 | -0.45929 | 9004 ft | 257 kts | 116° |
| 2026-05-06 20:43 | 50.99387 | -0.43357 | 9004 ft | 257 kts | 116° |
| 2026-05-06 20:43 | 50.98599 | -0.40857 | 9007 ft | 257 kts | 116° |
| 2026-05-06 20:44 | 50.97801 | -0.38318 | 8939 ft | 256 kts | 116° |
| 2026-05-06 20:44 | 50.97011 | -0.35802 | 8594 ft | 254 kts | 116° |
| 2026-05-06 20:44 | 50.96223 | -0.33302 | 8251 ft | 253 kts | 116° |
| 2026-05-06 20:44 | 50.95438 | -0.30821 | 8019 ft | 250 kts | 116° |
| 2026-05-06 20:45 | 50.94657 | -0.28357 | 8002 ft | 251 kts | 116° |
| 2026-05-06 20:45 | 50.93873 | -0.25875 | 7995 ft | 251 kts | 115° |
| 2026-05-06 20:45 | 50.93412 | -0.23227 | 8010 ft | 251 kts | 95° |
| 2026-05-06 20:45 | 50.93294 | -0.20475 | 8005 ft | 250 kts | 91° |
| 2026-05-06 20:46 | 50.93213 | -0.17721 | 8000 ft | 250 kts | 91° |
| 2026-05-06 20:46 | 50.93138 | -0.14970 | 8006 ft | 250 kts | 91° |
| 2026-05-06 20:46 | 50.93062 | -0.12212 | 7999 ft | 250 kts | 91° |
| 2026-05-06 20:46 | 50.93059 | -0.09460 | 7996 ft | 249 kts | 79° |
| 2026-05-06 20:47 | 50.93754 | -0.06995 | 8005 ft | 245 kts | 47° |
| 2026-05-06 20:47 | 50.95116 | -0.05476 | 7936 ft | 240 kts | 17° |
| 2026-05-06 20:47 | 50.96744 | -0.05269 | 7587 ft | 236 kts | 346° |
| 2026-05-06 20:47 | 50.98163 | -0.06463 | 7215 ft | 233 kts | 314° |
| 2026-05-06 20:48 | 50.98966 | -0.08667 | 6840 ft | 233 kts | 288° |
| 2026-05-06 20:48 | 50.99444 | -0.11137 | 6469 ft | 234 kts | 286° |
| 2026-05-06 20:48 | 50.99895 | -0.13612 | 6105 ft | 233 kts | 286° |
| 2026-05-06 20:48 | 51.00338 | -0.16084 | 5754 ft | 232 kts | 286° |
| 2026-05-06 20:49 | 51.00774 | -0.18549 | 5408 ft | 231 kts | 286° |
| 2026-05-06 20:49 | 51.01204 | -0.20999 | 5071 ft | 229 kts | 286° |
| 2026-05-06 20:49 | 51.01628 | -0.23435 | 4730 ft | 229 kts | 286° |
| 2026-05-06 20:49 | 51.02048 | -0.25866 | 4356 ft | 228 kts | 286° |
| 2026-05-06 20:50 | 51.02462 | -0.28295 | 3981 ft | 228 kts | 286° |
| 2026-05-06 20:50 | 51.02872 | -0.30724 | 3621 ft | 228 kts | 286° |
| 2026-05-06 20:50 | 51.03277 | -0.33150 | 3269 ft | 227 kts | 286° |
| 2026-05-06 20:50 | 51.03670 | -0.35565 | 3022 ft | 224 kts | 286° |
| 2026-05-06 20:51 | 51.04061 | -0.37981 | 3004 ft | 227 kts | 286° |
| 2026-05-06 20:51 | 51.04450 | -0.40380 | 3001 ft | 218 kts | 286° |
| 2026-05-06 20:51 | 51.04810 | -0.42627 | 2999 ft | 202 kts | 286° |
| 2026-05-06 20:51 | 51.05140 | -0.44707 | 2998 ft | 188 kts | 286° |
| 2026-05-06 20:52 | 51.05455 | -0.46720 | 3003 ft | 187 kts | 286° |
| 2026-05-06 20:52 | 51.06000 | -0.48543 | 3045 ft | 180 kts | 314° |
| 2026-05-06 20:52 | 51.07082 | -0.49530 | 3005 ft | 181 kts | 354° |
| 2026-05-06 20:52 | 51.08285 | -0.49125 | 3010 ft | 180 kts | 31° |
| 2026-05-06 20:53 | 51.09285 | -0.47915 | 3013 ft | 181 kts | 40° |
| 2026-05-06 20:53 | 51.10227 | -0.46592 | 3010 ft | 181 kts | 40° |
| 2026-05-06 20:53 | 51.11054 | -0.45088 | 3002 ft | 182 kts | 59° |
| 2026-05-06 20:53 | 51.11444 | -0.43181 | 3083 ft | 181 kts | 76° |
| 2026-05-06 20:54 | 51.11713 | -0.41265 | 2883 ft | 177 kts | 75° |
| 2026-05-06 20:54 | 51.11982 | -0.39364 | 2627 ft | 174 kts | 75° |
| 2026-05-06 20:54 | 51.12241 | -0.37521 | 2402 ft | 166 kts | 75° |
| 2026-05-06 20:54 | 51.12487 | -0.35763 | 2188 ft | 160 kts | 75° |
| 2026-05-06 20:55 | 51.12731 | -0.34023 | 1970 ft | 166 kts | 75° |
| 2026-05-06 20:55 | 51.12966 | -0.32331 | 1746 ft | 148 kts | 74° |
| 2026-05-06 20:55 | 51.13185 | -0.30764 | 1535 ft | 143 kts | 74° |
| 2026-05-06 20:55 | 51.13400 | -0.29221 | 1352 ft | 142 kts | 75° |
| 2026-05-06 20:56 | 51.13614 | -0.27685 | 1150 ft | 142 kts | 75° |
| 2026-05-06 20:56 | 51.13825 | -0.26152 | 957 ft | 142 kts | 77° |
| 2026-05-06 20:56 | 51.14028 | -0.24614 | 758 ft | 141 kts | 77° |
| 2026-05-06 20:56 | 51.14250 | -0.23093 | 534 ft | 141 kts | 77° |
| 2026-05-06 20:57 | 51.14462 | -0.21579 | 354 ft | 140 kts | 77° |
| 2026-05-06 20:57 | 51.14669 | -0.20079 | 216 ft | 136 kts | 78° |
| 2026-05-06 20:57 | 51.14841 | -0.18820 | 202 ft | 95 kts | 77° |
| 2026-05-06 20:57 | 51.14946 | -0.18090 | 208 ft | 46 kts | 75° |
| 2026-05-06 20:58 | 51.15051 | -0.17806 | 212 ft | 15 kts | 53° |
| 2026-05-06 20:58 | 51.15093 | -0.17755 | 205 ft | 0 kts | 20° |
| 2026-05-06 20:58 | 51.15094 | -0.17754 | 205 ft | 1 kts | 20° |
| 2026-05-06 20:58 | 51.15116 | -0.17755 | 205 ft | 7 kts | 353° |
| 2026-05-06 20:59 | 51.15170 | -0.17773 | 209 ft | 8 kts | 348° |
| 2026-05-06 20:59 | 51.15204 | -0.17779 | 205 ft | 0 kts | 355° |
| 2026-05-06 20:59 | 51.15213 | -0.17781 | 205 ft | 2 kts | 355° |
| 2026-05-06 21:00 | 51.15240 | -0.17771 | 209 ft | 8 kts | 27° |
| 2026-05-06 21:00 | 51.15268 | -0.17683 | 206 ft | 10 kts | 79° |
| 2026-05-06 21:00 | 51.15284 | -0.17567 | 204 ft | 11 kts | 77° |
| 2026-05-06 21:00 | 51.15299 | -0.17440 | 204 ft | 12 kts | 81° |
| 2026-05-06 21:01 | 51.15353 | -0.17370 | 207 ft | 13 kts | 349° |
| 2026-05-06 21:01 | 51.15453 | -0.17406 | 208 ft | 16 kts | 348° |
| 2026-05-06 21:01 | 51.15564 | -0.17443 | 204 ft | 17 kts | 347° |
| 2026-05-06 21:01 | 51.15678 | -0.17483 | 204 ft | 17 kts | 348° |
| 2026-05-06 21:02 | 51.15754 | -0.17535 | 207 ft | 9 kts | 289° |
| 2026-05-06 21:02 | 51.15741 | -0.17652 | 206 ft | 13 kts | 257° |
| 2026-05-06 21:02 | 51.15722 | -0.17791 | 204 ft | 13 kts | 257° |
| 2026-05-06 21:02 | 51.15702 | -0.17937 | 209 ft | 14 kts | 258° |
| 2026-05-06 21:03 | 51.15740 | -0.18043 | 204 ft | 13 kts | 349° |
| 2026-05-06 21:03 | 51.15801 | -0.18047 | 215 ft | 6 kts | 36° |
| 2026-05-06 21:03 | 51.15810 | -0.17982 | 206 ft | 5 kts | 78° |
| 2026-05-06 21:03 | 51.15817 | -0.17939 | 204 ft | 2 kts | 77° |
| 2026-05-06 21:04 | 51.15817 | -0.17937 | 204 ft | 0 kts | 77° |